This is the latest recevied weather packets stored in our database for station/object EA1IDU. If no packets are shown the sender has not sent any weather packets the latest 10 day(s).
| Time | Temp. | Humidity | Pressure | Rain* | Wind** | Luminosity | Snow |
|---|---|---|---|---|---|---|---|
| 1777387916 | 18.33° C | 62% | 1011.8 hPa | 0 mm | - | - | - |
| 1777385454 | 19.44° C | 60% | 1012 hPa | 0 mm | - | - | - |
| 1777384244 | 18.89° C | 62% | 1012.2 hPa | 0 mm | - | - | - |
| 1777383034 | 18.89° C | 59% | 1012.5 hPa | 0 mm | - | - | - |
| 1777381219 | 18.33° C | 63% | 1013 hPa | 0 mm | - | - | - |
| 1777378255 | 17.78° C | 69% | 1013.8 hPa | 0 mm | - | - | - |
| 1777377650 | 18.33° C | 70% | 1013.9 hPa | 0 mm | - | - | - |
| 1777377045 | 17.22° C | 71% | 1013.9 hPa | 0 mm | - | - | - |
| 1777372285 | 14.44° C | 81% | 1015.2 hPa | 0 mm | - | - | - |
| 1777368030 | 13.33° C | 85% | 1015.4 hPa | 0 mm | - | - | - |
| 1777366820 | 12.78° C | 87% | 1015.2 hPa | 0 mm | - | - | - |
| 1777366315 | 12.78° C | 87% | 1015.3 hPa | 0 mm | - | - | - |
| 1777365087 | 12.78° C | 88% | 1015.4 hPa | 0 mm | - | - | - |
| 1777362645 | 12.22° C | 90% | 1015.4 hPa | 0 mm | - | - | - |
| 1777360831 | 11.67° C | 93% | 1015.7 hPa | 0 mm | - | - | - |
| 1777357261 | 11.11° C | 95% | 1015.4 hPa | 0 mm | - | - | - |
| 1777356071 | 11.11° C | 95% | 1015.6 hPa | 0 mm | - | - | - |
| 1777354258 | 11.11° C | 96% | 1015.4 hPa | 0 mm | - | - | - |
| 1777351312 | 10.56° C | 96% | 1015.5 hPa | 0 mm | - | - | - |
| 1777348247 | 10.56° C | 94% | 1015.8 hPa | 0 mm | - | - | - |
| 1777347663 | 10.56° C | 94% | 1015.6 hPa | 0 mm | - | - | - |
| 1777346432 | 10.56° C | 94% | 1015.8 hPa | 0 mm | - | - | - |
| 1777344637 | 11.11° C | 93% | 1016.1 hPa | 0 mm | - | - | - |
| 1777340443 | 11.67° C | 91% | 1016.3 hPa | 0 mm | - | - | - |
| 1777339254 | 11.67° C | 89% | 1016.5 hPa | 0 mm | - | - | - |
* Rain latest hour (hover to see other rain measurements)
** Current wind speed in m/s (hover to see current wind gust speed)